createdAt,value
2023-02-16T00:00:33.248Z,101724.06
2023-02-16T00:03:21.911Z,101724.75
2023-02-16T00:06:07.549Z,101723.47
2023-02-16T00:08:55.330Z,101713.31
2023-02-16T00:11:41.784Z,101719.53
2023-02-16T00:14:27.541Z,101716.00
2023-02-16T00:17:12.537Z,101713.63
2023-02-16T00:19:57.875Z,101712.44
2023-02-16T00:22:43.446Z,101712.53
2023-02-16T00:25:28.539Z,101714.59
2023-02-16T00:28:20.511Z,101712.81
2023-02-16T00:31:06.524Z,101700.72
2023-02-16T00:33:51.613Z,101694.06
2023-02-16T00:36:37.000Z,101682.94
2023-02-16T00:39:22.864Z,101682.84
2023-02-16T00:42:19.070Z,101677.16
2023-02-16T00:45:05.021Z,101676.84
2023-02-16T00:47:52.172Z,101673.91
2023-02-16T00:50:37.615Z,101676.09
2023-02-16T00:53:23.012Z,101672.75
2023-02-16T00:56:13.153Z,101676.47
2023-02-16T00:58:58.646Z,101673.13
2023-02-16T01:01:44.542Z,101678.22
2023-02-16T01:04:30.169Z,101692.56
2023-02-16T01:07:18.698Z,101684.41
2023-02-16T01:10:04.180Z,101680.59
2023-02-16T01:12:49.535Z,101682.53
2023-02-16T01:15:36.323Z,101684.22
2023-02-16T01:18:21.837Z,101678.50
2023-02-16T01:21:07.414Z,101672.53
2023-02-16T01:23:52.604Z,101671.25
2023-02-16T01:26:40.536Z,101673.78
2023-02-16T01:29:25.742Z,101668.41
2023-02-16T01:32:12.876Z,101665.66
2023-02-16T01:34:58.230Z,101666.63
2023-02-16T01:37:43.842Z,101678.81
2023-02-16T01:40:35.255Z,101679.91
2023-02-16T01:43:26.937Z,101684.53
2023-02-16T01:46:18.333Z,101690.50
2023-02-16T01:49:03.459Z,101666.53
2023-02-16T01:51:57.811Z,101669.47
2023-02-16T01:54:52.102Z,101658.19
2023-02-16T01:57:50.464Z,101664.50
2023-02-16T02:00:54.121Z,101649.16
2023-02-16T02:03:39.288Z,101647.63
2023-02-16T02:06:33.459Z,101648.34
2023-02-16T02:09:42.433Z,101637.44
2023-02-16T02:12:34.877Z,101632.88
2023-02-16T02:15:24.580Z,101652.25
2023-02-16T02:18:10.014Z,101660.09
2023-02-16T02:21:22.762Z,101653.72
2023-02-16T02:24:45.542Z,101652.78
2023-02-16T02:28:00.187Z,101644.78
2023-02-16T02:30:52.852Z,101653.78
2023-02-16T02:34:02.477Z,101663.19
2023-02-16T02:37:08.967Z,101660.41
2023-02-16T02:40:06.540Z,101660.22
2023-02-16T02:43:19.440Z,101657.34
2023-02-16T02:46:23.619Z,101651.91
2023-02-16T02:49:08.915Z,101652.03
2023-02-16T02:51:54.513Z,101661.81
2023-02-16T02:54:43.642Z,101666.81
2023-02-16T02:57:40.585Z,101662.72
2023-02-16T03:00:41.106Z,101668.16
2023-02-16T03:03:37.516Z,101663.53
2023-02-16T03:06:34.836Z,101664.56
2023-02-16T03:09:20.966Z,101654.16
2023-02-16T03:12:08.411Z,101656.50
2023-02-16T03:14:59.666Z,101653.09
2023-02-16T03:17:46.476Z,101658.88
2023-02-16T03:20:31.843Z,101655.22
2023-02-16T03:23:16.925Z,101655.53
2023-02-16T03:26:02.546Z,101655.50
2023-02-16T03:28:49.292Z,101652.13
2023-02-16T03:31:36.595Z,101654.25
2023-02-16T03:34:22.824Z,101656.38
2023-02-16T03:37:08.035Z,101657.13
2023-02-16T03:39:53.234Z,101660.25
2023-02-16T03:42:38.348Z,101650.97
2023-02-16T03:45:24.336Z,101646.13
2023-02-16T03:48:10.083Z,101653.69
2023-02-16T03:50:55.207Z,101654.66
2023-02-16T03:53:40.050Z,101653.63
2023-02-16T03:56:25.478Z,101659.34
2023-02-16T03:59:10.536Z,101646.47
2023-02-16T04:01:55.395Z,101650.56
2023-02-16T04:04:40.951Z,101642.81
2023-02-16T04:07:26.418Z,101635.00
2023-02-16T04:10:11.357Z,101628.78
2023-02-16T04:12:56.994Z,101631.28
2023-02-16T04:15:42.149Z,101627.72
2023-02-16T04:18:27.208Z,101629.19
2023-02-16T04:21:12.583Z,101636.47
2023-02-16T04:23:57.887Z,101642.44
2023-02-16T04:26:42.835Z,101640.22
2023-02-16T04:29:28.091Z,101638.88
2023-02-16T04:32:13.663Z,101641.16
2023-02-16T04:34:59.045Z,101645.47
2023-02-16T04:37:44.331Z,101637.53
2023-02-16T04:40:29.640Z,101637.72
2023-02-16T04:43:14.655Z,101640.47
2023-02-16T04:45:59.876Z,101636.06
2023-02-16T04:48:45.589Z,101635.19
2023-02-16T04:51:31.048Z,101635.66
2023-02-16T04:54:16.810Z,101637.59
2023-02-16T04:57:01.977Z,101633.56
2023-02-16T04:59:47.233Z,101635.94
2023-02-16T05:02:33.257Z,101629.19
2023-02-16T05:05:18.471Z,101629.41
2023-02-16T05:08:03.937Z,101627.13
2023-02-16T05:10:49.131Z,101624.38
2023-02-16T05:13:35.266Z,101632.22
2023-02-16T05:16:22.961Z,101629.66
2023-02-16T05:19:08.181Z,101619.06
2023-02-16T05:21:53.382Z,101611.81
2023-02-16T05:24:39.068Z,101611.16
2023-02-16T05:27:26.532Z,101623.91
2023-02-16T05:30:12.511Z,101624.66
2023-02-16T05:32:57.810Z,101619.22
2023-02-16T05:35:43.240Z,101612.72
2023-02-16T05:38:28.689Z,101626.31
2023-02-16T05:41:13.996Z,101628.63
2023-02-16T05:44:01.034Z,101634.31
2023-02-16T05:46:46.340Z,101641.75
2023-02-16T05:49:31.597Z,101639.28
2023-02-16T05:52:16.912Z,101648.94
2023-02-16T05:55:02.417Z,101638.47
2023-02-16T05:57:47.951Z,101622.56
2023-02-16T06:00:33.316Z,101624.69
2023-02-16T06:03:18.882Z,101616.47
2023-02-16T06:06:05.138Z,101623.19
2023-02-16T06:08:50.137Z,101641.25
2023-02-16T06:11:36.351Z,101633.56
2023-02-16T06:14:21.556Z,101635.34
2023-02-16T06:17:07.188Z,101630.59
2023-02-16T06:19:52.294Z,101629.69
2023-02-16T06:22:37.239Z,101628.25
2023-02-16T06:25:22.085Z,101630.84
2023-02-16T06:28:07.426Z,101629.66
2023-02-16T06:30:52.663Z,101630.13
2023-02-16T06:33:38.128Z,101618.94
2023-02-16T06:36:24.163Z,101626.63
2023-02-16T06:39:09.623Z,101633.69
2023-02-16T06:41:55.142Z,101633.75
2023-02-16T06:44:40.424Z,101642.25
2023-02-16T06:47:26.054Z,101651.34
2023-02-16T06:50:11.631Z,101652.84
2023-02-16T06:52:56.858Z,101653.44
2023-02-16T06:55:41.993Z,101650.75
2023-02-16T06:58:27.306Z,101649.63
2023-02-16T07:01:12.526Z,101649.34
2023-02-16T07:03:58.964Z,101648.75
2023-02-16T07:06:44.263Z,101650.56
2023-02-16T07:09:29.125Z,101644.59
2023-02-16T07:12:14.310Z,101659.06
2023-02-16T07:14:59.798Z,101657.41
2023-02-16T07:17:45.229Z,101652.16
2023-02-16T07:20:30.617Z,101662.13
2023-02-16T07:23:15.755Z,101647.88
2023-02-16T07:26:00.785Z,101649.81
2023-02-16T07:28:45.993Z,101653.78
2023-02-16T07:31:31.447Z,101639.56
2023-02-16T07:34:16.912Z,101628.88
2023-02-16T07:37:02.129Z,101624.69
2023-02-16T07:39:47.624Z,101618.09
2023-02-16T07:42:33.426Z,101622.13
2023-02-16T07:45:18.683Z,101625.28
2023-02-16T07:48:04.381Z,101621.00
2023-02-16T07:50:49.467Z,101621.97
2023-02-16T07:53:34.657Z,101612.28
2023-02-16T07:56:25.062Z,101604.63
2023-02-16T07:59:10.106Z,101613.97
2023-02-16T08:01:55.679Z,101611.69
2023-02-16T08:04:40.704Z,101608.22
2023-02-16T08:07:25.762Z,101592.84
2023-02-16T08:10:11.168Z,101584.19
2023-02-16T08:12:56.166Z,101580.34
2023-02-16T08:15:44.996Z,101572.66
2023-02-16T08:18:30.895Z,101575.75
2023-02-16T08:21:21.603Z,101576.81
2023-02-16T08:24:08.195Z,101583.19
2023-02-16T08:26:54.162Z,101572.88
2023-02-16T08:29:39.624Z,101573.16
2023-02-16T08:32:25.167Z,101564.66
2023-02-16T08:35:10.627Z,101563.09
2023-02-16T08:37:56.007Z,101565.56
2023-02-16T08:40:47.954Z,101563.09
2023-02-16T08:43:33.389Z,101560.16
2023-02-16T08:46:18.710Z,101554.44
2023-02-16T08:49:03.930Z,101552.84
2023-02-16T08:51:54.902Z,101549.03
2023-02-16T08:54:40.282Z,101540.75
2023-02-16T08:57:25.660Z,101544.84
2023-02-16T09:00:11.307Z,101546.72
2023-02-16T09:02:59.007Z,101547.97
2023-02-16T09:05:48.448Z,101537.94
2023-02-16T09:08:33.412Z,101539.25
2023-02-16T09:11:20.530Z,101528.47
2023-02-16T09:14:05.772Z,101517.50
2023-02-16T09:16:50.995Z,101514.31
2023-02-16T09:19:36.345Z,101505.44
2023-02-16T09:22:21.324Z,101500.84
2023-02-16T09:25:07.232Z,101523.81
2023-02-16T09:27:52.647Z,101519.13
2023-02-16T09:30:39.580Z,101516.16
2023-02-16T09:33:25.255Z,101515.59
2023-02-16T09:36:11.749Z,101532.84
2023-02-16T09:38:57.435Z,101534.16
2023-02-16T09:42:11.207Z,101520.91
2023-02-16T09:45:09.128Z,101532.19
2023-02-16T09:47:56.334Z,101521.50
2023-02-16T09:50:53.845Z,101515.91
2023-02-16T09:53:42.679Z,101498.78
2023-02-16T09:56:36.255Z,101490.97
2023-02-16T09:59:43.314Z,101480.13
2023-02-16T10:02:50.167Z,101475.53
2023-02-16T10:05:54.385Z,101479.53
2023-02-16T10:08:49.181Z,101485.91
2023-02-16T10:11:43.759Z,101477.53
2023-02-16T10:14:40.255Z,101479.16
2023-02-16T10:17:33.083Z,101490.16
2023-02-16T10:20:25.458Z,101479.78
2023-02-16T10:23:37.109Z,101485.25
2023-02-16T10:26:43.350Z,101476.84
2023-02-16T10:29:28.508Z,101458.56
2023-02-16T10:32:24.762Z,101449.00
2023-02-16T10:35:16.449Z,101447.22
2023-02-16T10:38:26.593Z,101451.13
2023-02-16T10:41:30.723Z,101441.75
2023-02-16T10:44:22.356Z,101447.00
2023-02-16T10:47:22.861Z,101451.81
2023-02-16T10:50:21.800Z,101453.06
2023-02-16T10:53:13.373Z,101444.38
2023-02-16T10:55:59.119Z,101442.25
2023-02-16T10:58:44.459Z,101440.53
2023-02-16T11:01:38.751Z,101451.16
2023-02-16T11:04:41.453Z,101449.00
2023-02-16T11:07:29.322Z,101450.19
2023-02-16T11:10:33.542Z,101438.50
2023-02-16T11:13:31.532Z,101429.84
2023-02-16T11:16:23.460Z,101416.84
2023-02-16T11:19:24.438Z,101405.56
2023-02-16T11:22:27.017Z,101368.00
2023-02-16T11:25:18.230Z,101347.53
2023-02-16T11:28:03.710Z,101354.53
2023-02-16T11:30:49.146Z,101342.38
2023-02-16T11:33:35.296Z,101328.44
2023-02-16T11:36:40.374Z,101357.66
2023-02-16T11:39:30.168Z,101352.38
2023-02-16T11:42:33.030Z,101364.47
2023-02-16T11:45:44.275Z,101368.09
2023-02-16T11:48:32.737Z,101365.53
2023-02-16T11:51:32.038Z,101370.13
2023-02-16T11:54:18.034Z,101378.03
2023-02-16T11:57:07.534Z,101377.25
2023-02-16T11:59:53.119Z,101362.53
2023-02-16T12:03:06.119Z,101362.81
2023-02-16T12:06:03.721Z,101366.34
2023-02-16T12:08:58.324Z,101357.63
2023-02-16T12:12:10.924Z,101346.31
2023-02-16T12:15:12.246Z,101360.50
2023-02-16T12:18:12.740Z,101373.53
2023-02-16T12:21:12.648Z,101356.28
2023-02-16T12:24:09.878Z,101339.41
2023-02-16T12:27:02.676Z,101349.47
2023-02-16T12:30:13.062Z,101346.31
2023-02-16T12:33:13.505Z,101327.53
2023-02-16T12:36:37.712Z,101298.84
2023-02-16T12:39:31.264Z,101305.56
2023-02-16T12:42:22.210Z,101316.00
2023-02-16T12:45:18.735Z,101324.41
2023-02-16T12:48:16.509Z,101317.06
2023-02-16T12:51:06.311Z,101336.06
2023-02-16T12:53:54.695Z,101327.53
2023-02-16T12:56:47.563Z,101349.38
2023-02-16T12:59:37.099Z,101326.19
2023-02-16T13:02:28.585Z,101319.16
2023-02-16T13:05:20.690Z,101307.47
2023-02-16T13:08:20.025Z,101312.53
2023-02-16T13:11:16.322Z,101321.88
2023-02-16T13:14:10.875Z,101313.09
2023-02-16T13:17:08.921Z,101332.78
2023-02-16T13:19:54.060Z,101329.94
2023-02-16T13:23:16.816Z,101326.41
2023-02-16T13:26:05.767Z,101310.59
2023-02-16T13:29:00.064Z,101321.78
2023-02-16T13:32:05.182Z,101324.34
2023-02-16T13:34:56.584Z,101322.78
2023-02-16T13:37:47.603Z,101317.53
2023-02-16T13:41:22.671Z,101319.28
2023-02-16T13:44:15.929Z,101304.63
2023-02-16T13:47:03.146Z,101292.84
2023-02-16T13:49:48.683Z,101314.38
2023-02-16T13:52:40.614Z,101314.34
2023-02-16T13:55:32.917Z,101322.97
2023-02-16T13:58:18.370Z,101323.84
2023-02-16T14:01:28.100Z,101318.69
2023-02-16T14:04:22.074Z,101324.25
2023-02-16T14:07:07.388Z,101325.81
2023-02-16T14:09:52.696Z,101343.91
2023-02-16T14:12:39.799Z,101359.56
2023-02-16T14:15:25.004Z,101360.09
2023-02-16T14:18:36.883Z,101361.13
2023-02-16T14:21:32.635Z,101364.63
2023-02-16T14:24:34.864Z,101356.91
2023-02-16T14:27:40.939Z,101369.03
2023-02-16T14:30:36.812Z,101374.34
2023-02-16T14:33:37.344Z,101392.09
2023-02-16T14:36:23.363Z,101399.84
2023-02-16T14:39:12.778Z,101394.50
2023-02-16T14:42:15.692Z,101395.09
2023-02-16T14:45:37.314Z,101390.88
2023-02-16T14:48:47.492Z,101408.94
2023-02-16T14:51:49.027Z,101406.25
2023-02-16T14:54:48.694Z,101393.25
2023-02-16T14:57:48.847Z,101405.41
2023-02-16T15:00:52.848Z,101405.22
2023-02-16T15:03:42.865Z,101406.91
2023-02-16T15:06:39.613Z,101407.03
2023-02-16T15:09:33.010Z,101409.50
2023-02-16T15:12:29.754Z,101404.13
2023-02-16T15:15:21.199Z,101406.75
2023-02-16T15:18:14.644Z,101408.28
2023-02-16T15:21:00.791Z,101396.31
2023-02-16T15:23:58.084Z,101402.22
2023-02-16T15:26:53.946Z,101385.84
2023-02-16T15:29:42.415Z,101388.41
2023-02-16T15:32:27.922Z,101392.69
2023-02-16T15:35:24.818Z,101389.16
2023-02-16T15:38:13.117Z,101395.16
2023-02-16T15:41:03.058Z,101386.38
2023-02-16T15:43:50.984Z,101379.44
2023-02-16T15:46:42.035Z,101393.16
2023-02-16T15:49:29.281Z,101386.38
2023-02-16T15:52:27.406Z,101387.22
2023-02-16T15:55:12.961Z,101384.84
2023-02-16T15:57:58.994Z,101377.78
2023-02-16T16:00:45.385Z,101385.69
2023-02-16T16:03:30.407Z,101383.00
2023-02-16T16:06:15.855Z,101385.41
2023-02-16T16:09:01.819Z,101385.41
2023-02-16T16:11:49.832Z,101384.56
2023-02-16T16:14:38.527Z,101382.66
2023-02-16T16:17:31.268Z,101392.22
2023-02-16T16:20:38.358Z,101386.97
2023-02-16T16:23:27.271Z,101391.16
2023-02-16T16:26:21.956Z,101398.88
2023-02-16T16:29:30.327Z,101390.59
2023-02-16T16:32:20.125Z,101399.06
2023-02-16T16:35:33.354Z,101393.16
2023-02-16T16:38:28.726Z,101386.16
2023-02-16T16:41:26.929Z,101391.19
2023-02-16T16:44:29.179Z,101389.34
2023-02-16T16:47:25.448Z,101384.47
2023-02-16T16:50:11.176Z,101381.69
2023-02-16T16:52:56.778Z,101386.09
2023-02-16T16:55:41.867Z,101382.63
2023-02-16T16:58:27.261Z,101380.47
2023-02-16T17:01:12.906Z,101382.25
2023-02-16T17:03:58.714Z,101364.16
2023-02-16T17:06:44.087Z,101361.53
2023-02-16T17:09:29.595Z,101357.44
2023-02-16T17:12:15.176Z,101348.88
2023-02-16T17:15:02.150Z,101351.41
2023-02-16T17:17:47.238Z,101347.75
2023-02-16T17:20:32.967Z,101347.75
2023-02-16T17:23:20.560Z,101345.94
2023-02-16T17:26:06.955Z,101341.44
2023-02-16T17:28:52.204Z,101346.53
2023-02-16T17:31:37.690Z,101342.22
2023-02-16T17:34:22.950Z,101341.44
2023-02-16T17:37:10.383Z,101336.00
2023-02-16T17:39:55.315Z,101336.09
2023-02-16T17:42:41.908Z,101334.28
2023-02-16T17:45:27.286Z,101336.09
2023-02-16T17:48:30.594Z,101329.97
2023-02-16T17:51:19.326Z,101337.72
2023-02-16T17:54:06.585Z,101337.00
2023-02-16T17:56:52.261Z,101337.66
2023-02-16T17:59:37.473Z,101339.34
2023-02-16T18:02:22.983Z,101334.06
2023-02-16T18:05:09.281Z,101335.72
2023-02-16T18:07:56.096Z,101333.97
2023-02-16T18:10:52.607Z,101330.47
2023-02-16T18:13:38.676Z,101329.59
2023-02-16T18:16:27.186Z,101328.34
2023-02-16T18:19:14.509Z,101336.22
2023-02-16T18:22:00.752Z,101331.03
2023-02-16T18:24:46.239Z,101328.47
2023-02-16T18:27:31.802Z,101320.91
2023-02-16T18:30:17.839Z,101319.91
2023-02-16T18:33:03.028Z,101318.91
2023-02-16T18:35:54.254Z,101315.56
2023-02-16T18:38:39.143Z,101313.94
2023-02-16T18:41:24.599Z,101307.69
2023-02-16T18:44:09.962Z,101301.69
2023-02-16T18:46:55.778Z,101300.72
2023-02-16T18:49:41.040Z,101297.38
2023-02-16T18:52:26.403Z,101299.19
2023-02-16T18:55:12.937Z,101295.94
2023-02-16T18:57:58.669Z,101296.03
2023-02-16T19:00:44.083Z,101293.50
2023-02-16T19:03:30.408Z,101303.78
2023-02-16T19:06:15.857Z,101309.06
2023-02-16T19:09:01.094Z,101300.16
2023-02-16T19:11:46.620Z,101309.75
2023-02-16T19:14:31.805Z,101314.81
2023-02-16T19:17:17.521Z,101300.06
2023-02-16T19:20:02.641Z,101303.44
2023-02-16T19:22:49.128Z,101290.00
2023-02-16T19:25:34.076Z,101286.56
2023-02-16T19:28:19.375Z,101289.84
2023-02-16T19:31:07.582Z,101290.03
2023-02-16T19:33:53.260Z,101297.09
2023-02-16T19:36:38.739Z,101279.09
2023-02-16T19:39:23.857Z,101292.91
2023-02-16T19:42:09.284Z,101296.47
2023-02-16T19:45:02.502Z,101293.16
2023-02-16T19:47:50.228Z,101293.69
2023-02-16T19:50:35.745Z,101316.91
2023-02-16T19:53:21.115Z,101315.13
2023-02-16T19:56:27.939Z,101314.97
2023-02-16T19:59:13.391Z,101310.56
2023-02-16T20:01:58.755Z,101333.41
2023-02-16T20:04:44.704Z,101329.81
2023-02-16T20:07:30.135Z,101331.50
2023-02-16T20:10:15.688Z,101327.88
2023-02-16T20:13:03.542Z,101326.94
2023-02-16T20:15:48.563Z,101326.81
2023-02-16T20:18:35.032Z,101325.59
2023-02-16T20:21:23.116Z,101313.53
2023-02-16T20:24:09.541Z,101319.50
2023-02-16T20:26:54.730Z,101316.97
2023-02-16T20:29:40.619Z,101312.75
2023-02-16T20:32:27.193Z,101306.03
2023-02-16T20:35:12.455Z,101315.34
2023-02-16T20:37:57.805Z,101314.78
2023-02-16T20:40:43.714Z,101306.03
2023-02-16T20:43:29.132Z,101296.50
2023-02-16T20:46:16.075Z,101294.72
2023-02-16T20:49:01.782Z,101301.59
2023-02-16T20:51:46.964Z,101304.78
2023-02-16T20:54:32.280Z,101309.06
2023-02-16T20:57:26.451Z,101289.19
2023-02-16T21:00:16.231Z,101298.72
2023-02-16T21:03:01.306Z,101294.94
2023-02-16T21:05:46.544Z,101303.44
2023-02-16T21:08:31.474Z,101311.81
2023-02-16T21:11:17.566Z,101318.31
2023-02-16T21:14:04.263Z,101318.06
2023-02-16T21:16:49.753Z,101323.91
2023-02-16T21:19:35.227Z,101316.88
2023-02-16T21:22:20.183Z,101318.44
2023-02-16T21:25:05.564Z,101332.25
2023-02-16T21:27:50.391Z,101311.50
2023-02-16T21:30:35.852Z,101307.13
2023-02-16T21:33:21.719Z,101318.84
2023-02-16T21:36:10.278Z,101298.78
2023-02-16T21:38:55.880Z,101296.03
2023-02-16T21:41:41.178Z,101292.50
2023-02-16T21:44:26.555Z,101291.63
2023-02-16T21:47:13.814Z,101276.78
2023-02-16T21:49:59.601Z,101274.06
2023-02-16T21:52:45.047Z,101277.44
2023-02-16T21:55:30.762Z,101268.88
2023-02-16T21:58:16.584Z,101275.72
2023-02-16T22:01:02.003Z,101270.69
2023-02-16T22:03:47.445Z,101274.25
2023-02-16T22:06:39.381Z,101274.31
2023-02-16T22:09:24.945Z,101270.06
2023-02-16T22:12:10.377Z,101270.19
2023-02-16T22:14:55.598Z,101242.84
2023-02-16T22:17:40.953Z,101250.72
2023-02-16T22:20:25.927Z,101230.09
2023-02-16T22:23:11.205Z,101238.75
2023-02-16T22:25:56.559Z,101233.63
2023-02-16T22:28:41.947Z,101234.78
2023-02-16T22:31:27.673Z,101228.13
2023-02-16T22:34:16.215Z,101236.78
2023-02-16T22:37:01.633Z,101228.09
2023-02-16T22:39:46.601Z,101226.47
2023-02-16T22:42:32.077Z,101243.69
2023-02-16T22:45:17.183Z,101243.75
2023-02-16T22:48:02.607Z,101233.38
2023-02-16T22:51:00.082Z,101228.88
2023-02-16T22:53:45.976Z,101238.31
2023-02-16T22:56:32.646Z,101234.88
2023-02-16T22:59:17.679Z,101237.41
2023-02-16T23:02:03.059Z,101244.31
2023-02-16T23:04:48.316Z,101249.38
2023-02-16T23:07:34.599Z,101246.16
2023-02-16T23:10:19.899Z,101256.56
2023-02-16T23:13:08.418Z,101257.59
2023-02-16T23:15:53.937Z,101258.41
2023-02-16T23:18:40.029Z,101256.53
2023-02-16T23:21:28.726Z,101262.34
2023-02-16T23:24:17.231Z,101258.69
2023-02-16T23:27:02.933Z,101260.22
2023-02-16T23:29:48.816Z,101261.88
2023-02-16T23:32:33.755Z,101260.06
2023-02-16T23:35:19.683Z,101251.38
2023-02-16T23:38:06.253Z,101249.56
2023-02-16T23:41:00.133Z,101249.53
2023-02-16T23:43:46.135Z,101254.69
2023-02-16T23:46:32.002Z,101248.75
2023-02-16T23:49:17.879Z,101251.34
2023-02-16T23:52:03.304Z,101258.34
2023-02-16T23:54:48.256Z,101264.56
2023-02-16T23:57:33.904Z,101254.53
